createdAt,value
2019-04-20T00:01:28.696Z,22.40
2019-04-20T00:03:55.629Z,22.30
2019-04-20T00:06:26.975Z,22.30
2019-04-20T00:09:04.717Z,22.20
2019-04-20T00:11:41.025Z,22.20
2019-04-20T00:14:05.773Z,22.10
2019-04-20T00:16:31.704Z,22.10
2019-04-20T00:19:03.541Z,22.10
2019-04-20T00:21:46.422Z,22.10
2019-04-20T00:24:21.989Z,22.00
2019-04-20T00:27:20.712Z,22.00
2019-04-20T00:29:35.284Z,22.10
2019-04-20T00:32:03.064Z,22.00
2019-04-20T00:34:29.496Z,22.00
2019-04-20T00:36:54.064Z,22.00
2019-04-20T00:39:24.151Z,22.00
2019-04-20T00:42:00.427Z,22.00
2019-04-20T00:44:31.973Z,21.90
2019-04-20T00:47:08.627Z,21.80
2019-04-20T00:50:02.540Z,21.70
2019-04-20T00:52:52.293Z,21.70
2019-04-20T00:54:51.483Z,21.70
2019-04-20T00:57:34.020Z,21.70
2019-04-20T01:00:10.970Z,21.70
2019-04-20T01:02:36.141Z,21.70
2019-04-20T01:05:12.829Z,21.60
2019-04-20T01:08:01.978Z,21.50
2019-04-20T01:10:37.202Z,21.40
2019-04-20T01:13:11.496Z,21.40
2019-04-20T01:15:46.459Z,21.40
2019-04-20T01:18:04.506Z,21.30
2019-04-20T01:20:34.333Z,21.10
2019-04-20T01:23:10.018Z,21.10
2019-04-20T01:25:40.454Z,21.10
2019-04-20T01:28:26.370Z,21.20
2019-04-20T01:30:44.612Z,21.20
2019-04-20T01:33:26.028Z,21.20
2019-04-20T01:35:57.106Z,21.30
2019-04-20T01:38:30.739Z,21.20
2019-04-20T01:40:44.551Z,21.10
2019-04-20T01:43:14.387Z,21.10
2019-04-20T01:45:45.748Z,21.20
2019-04-20T01:48:23.532Z,21.20
2019-04-20T01:50:55.074Z,21.10
2019-04-20T01:53:41.361Z,21.10
2019-04-20T01:56:12.709Z,21.10
2019-04-20T01:58:52.464Z,21.00
2019-04-20T02:01:36.203Z,20.90
2019-04-20T02:04:17.200Z,21.00
2019-04-20T02:06:47.180Z,20.90
2019-04-20T02:09:18.688Z,20.80
2019-04-20T02:11:47.375Z,20.90
2019-04-20T02:14:25.613Z,20.80
2019-04-20T02:16:52.857Z,20.80
2019-04-20T02:19:34.727Z,20.70
2019-04-20T02:22:03.862Z,20.70
2019-04-20T02:24:22.180Z,20.80
2019-04-20T02:26:52.046Z,20.70
2019-04-20T02:29:45.055Z,20.70
2019-04-20T02:35:03.386Z,20.60
2019-04-20T02:38:01.619Z,20.50
2019-04-20T02:40:16.121Z,20.40
2019-04-20T02:42:51.049Z,20.50
2019-04-20T02:45:24.120Z,20.50
2019-04-20T02:47:53.522Z,20.40
2019-04-20T02:50:36.097Z,20.40
2019-04-20T02:52:56.848Z,20.40
2019-04-20T02:55:28.184Z,20.30
2019-04-20T02:58:09.344Z,20.10
2019-04-20T03:02:42.894Z,20.40
2019-04-20T03:05:13.329Z,20.40
2019-04-20T03:07:50.563Z,20.40
2019-04-20T03:10:25.078Z,20.40
2019-04-20T03:12:55.060Z,20.30
2019-04-20T03:15:29.529Z,20.30
2019-04-20T03:17:59.659Z,20.30
2019-04-20T03:20:29.860Z,20.30
2019-04-20T03:23:17.657Z,20.20
2019-04-20T03:25:55.411Z,20.20
2019-04-20T03:28:28.099Z,20.20
2019-04-20T03:31:36.631Z,20.20
2019-04-20T03:33:56.081Z,20.20
2019-04-20T03:36:12.219Z,20.20
2019-04-20T03:38:38.655Z,20.10
2019-04-20T03:40:59.464Z,20.10
2019-04-20T03:43:18.595Z,20.10
2019-04-20T03:45:56.175Z,20.00
2019-04-20T03:48:39.314Z,20.10
2019-04-20T03:51:14.752Z,20.20
2019-04-20T03:53:43.325Z,20.20
2019-04-20T03:56:42.286Z,20.10
2019-04-20T03:59:34.644Z,20.10
2019-04-20T04:05:08.747Z,20.00
2019-04-20T04:07:30.404Z,19.90
2019-04-20T04:10:09.794Z,19.90
2019-04-20T04:13:05.156Z,19.90
2019-04-20T04:15:42.579Z,19.80
2019-04-20T04:18:13.896Z,19.70
2019-04-20T04:20:49.205Z,19.70
2019-04-20T04:23:32.640Z,19.70
2019-04-20T04:26:00.723Z,19.70
2019-04-20T04:28:28.433Z,19.70
2019-04-20T04:31:10.943Z,19.70
2019-04-20T04:33:53.190Z,19.60
2019-04-20T04:36:10.434Z,19.50
2019-04-20T04:41:19.652Z,19.60
2019-04-20T04:43:45.346Z,19.50
2019-04-20T04:45:59.558Z,19.60
2019-04-20T04:48:34.791Z,19.80
2019-04-20T04:51:07.234Z,20.00
2019-04-20T04:53:44.304Z,20.20
2019-04-20T04:56:09.538Z,20.20
2019-04-20T04:58:36.270Z,20.30
2019-04-20T05:01:11.791Z,20.20
2019-04-20T05:04:04.852Z,20.20
2019-04-20T05:06:31.311Z,20.20
2019-04-20T05:09:05.214Z,20.20
2019-04-20T05:11:34.949Z,20.20
2019-04-20T05:14:11.275Z,20.30
2019-04-20T05:16:55.253Z,20.30
2019-04-20T05:19:29.499Z,20.20
2019-04-20T05:22:09.288Z,20.20
2019-04-20T05:24:43.590Z,20.20
2019-04-20T05:27:52.350Z,20.30
2019-04-20T05:30:05.679Z,20.30
2019-04-20T05:32:48.043Z,20.30
2019-04-20T05:35:39.229Z,20.30
2019-04-20T05:38:08.131Z,20.20
2019-04-20T05:40:34.043Z,20.30
2019-04-20T05:43:24.302Z,20.20
2019-04-20T05:45:47.777Z,20.20
2019-04-20T05:48:23.277Z,20.30
2019-04-20T05:50:58.785Z,20.60
2019-04-20T05:53:32.596Z,20.70
2019-04-20T05:55:55.973Z,20.80
2019-04-20T05:58:33.044Z,20.80
2019-04-20T06:01:06.753Z,20.90
2019-04-20T06:03:35.590Z,20.90
2019-04-20T06:06:22.154Z,21.00
2019-04-20T06:11:07.974Z,21.30
2019-04-20T06:13:56.880Z,21.60
2019-04-20T06:16:46.904Z,21.80
2019-04-20T06:19:20.903Z,21.80
2019-04-20T06:22:14.907Z,21.70
2019-04-20T06:24:37.502Z,21.60
2019-04-20T06:27:00.980Z,21.60
2019-04-20T06:29:31.255Z,21.60
2019-04-20T06:32:06.915Z,21.60
2019-04-20T06:34:39.148Z,21.80
2019-04-20T06:37:18.752Z,22.00
2019-04-20T06:39:40.175Z,22.30
2019-04-20T06:42:15.215Z,22.40
2019-04-20T06:44:48.397Z,22.60
2019-04-20T06:49:42.048Z,22.70
2019-04-20T06:52:28.570Z,22.70
2019-04-20T06:54:57.971Z,22.80
2019-04-20T06:57:55.091Z,22.80
2019-04-20T07:00:15.799Z,22.90
2019-04-20T07:10:38.075Z,23.70
2019-04-20T07:12:51.758Z,23.80
2019-04-20T07:15:28.546Z,23.90
2019-04-20T07:18:13.812Z,24.00
2019-04-20T07:21:05.751Z,23.90
2019-04-20T07:23:32.687Z,23.80
2019-04-20T07:26:14.659Z,23.90
2019-04-20T07:28:41.063Z,23.90
2019-04-20T07:31:07.661Z,24.10
2019-04-20T07:33:44.642Z,23.90
2019-04-20T07:37:04.254Z,23.40
2019-04-20T07:39:30.219Z,23.30
2019-04-20T07:42:00.668Z,23.40
2019-04-20T07:44:34.286Z,23.50
2019-04-20T07:49:32.945Z,23.50
2019-04-20T07:51:43.964Z,23.50
2019-04-20T07:54:40.208Z,23.60
2019-04-20T07:57:03.877Z,23.60
2019-04-20T07:59:28.869Z,23.80
2019-04-20T08:02:43.890Z,23.80
2019-04-20T08:05:09.469Z,23.90
2019-04-20T08:07:42.642Z,24.00
2019-04-20T08:10:02.892Z,24.20
2019-04-20T08:13:02.280Z,24.20
2019-04-20T08:15:40.361Z,24.10
2019-04-20T08:17:59.917Z,24.10
2019-04-20T08:20:25.700Z,24.20
2019-04-20T08:22:58.791Z,24.40
2019-04-20T08:25:23.538Z,24.40
2019-04-20T08:28:12.769Z,24.40
2019-04-20T08:31:09.319Z,24.40
2019-04-20T08:33:59.502Z,24.50
2019-04-20T08:36:25.718Z,24.30
2019-04-20T08:41:20.717Z,24.50
2019-04-20T08:50:20.871Z,24.70
2019-04-20T08:55:19.669Z,24.50
2019-04-20T08:57:33.584Z,24.50
2019-04-20T09:00:07.087Z,24.80
2019-04-20T09:02:41.202Z,24.80
2019-04-20T09:05:28.133Z,24.90
2019-04-20T09:07:55.357Z,25.00
2019-04-20T09:10:39.509Z,25.00
2019-04-20T09:12:57.440Z,25.00
2019-04-20T09:15:19.098Z,25.10
2019-04-20T09:18:02.062Z,25.10
2019-04-20T09:20:41.159Z,25.10
2019-04-20T09:23:21.438Z,25.10
2019-04-20T09:26:10.202Z,25.10
2019-04-20T09:28:39.582Z,25.10
2019-04-20T09:31:20.185Z,25.10
2019-04-20T09:34:15.869Z,25.20
2019-04-20T09:36:53.769Z,25.10
2019-04-20T09:39:32.674Z,25.10
2019-04-20T09:42:15.259Z,25.10
2019-04-20T09:44:48.780Z,24.90
2019-04-20T09:47:25.452Z,24.90
2019-04-20T09:49:58.090Z,25.00
2019-04-20T09:52:31.279Z,24.90
2019-04-20T09:55:03.229Z,24.90
2019-04-20T09:57:38.080Z,24.90
2019-04-20T10:00:13.394Z,24.80
2019-04-20T10:02:29.868Z,24.80
2019-04-20T10:04:57.633Z,24.90
2019-04-20T10:07:32.523Z,25.00
2019-04-20T10:09:59.944Z,24.90
2019-04-20T10:12:29.891Z,24.90
2019-04-20T10:15:04.152Z,24.90
2019-04-20T10:17:33.252Z,24.90
2019-04-20T10:20:09.614Z,24.90
2019-04-20T10:22:33.883Z,25.00
2019-04-20T10:25:04.565Z,25.10
2019-04-20T10:27:34.769Z,25.10
2019-04-20T10:30:06.159Z,25.00
2019-04-20T10:32:40.339Z,24.90
2019-04-20T10:35:08.960Z,25.00
2019-04-20T10:37:43.534Z,24.90
2019-04-20T10:40:27.956Z,24.90
2019-04-20T10:42:46.067Z,25.10
2019-04-20T10:45:17.023Z,25.10
2019-04-20T10:47:47.289Z,25.10
2019-04-20T10:50:18.816Z,25.00
2019-04-20T10:52:49.888Z,25.00
2019-04-20T10:55:20.748Z,25.00
2019-04-20T10:57:51.398Z,25.00
2019-04-20T11:00:37.750Z,25.10
2019-04-20T11:03:08.111Z,25.10
2019-04-20T11:05:42.251Z,25.10
2019-04-20T11:08:12.930Z,25.10
2019-04-20T11:10:55.448Z,24.90
2019-04-20T11:13:15.300Z,25.00
2019-04-20T11:15:46.295Z,25.20
2019-04-20T11:18:17.602Z,25.40
2019-04-20T11:20:47.522Z,25.50
2019-04-20T11:23:18.198Z,25.30
2019-04-20T11:25:50.391Z,25.20
2019-04-20T11:28:21.902Z,25.20
2019-04-20T11:30:52.187Z,25.30
2019-04-20T11:33:22.353Z,25.20
2019-04-20T11:35:52.537Z,25.20
2019-04-20T11:38:22.197Z,25.30
2019-04-20T11:41:04.199Z,25.30
2019-04-20T11:43:24.327Z,25.20
2019-04-20T11:45:54.431Z,25.30
2019-04-20T11:48:25.489Z,25.20
2019-04-20T11:50:55.837Z,25.10
2019-04-20T11:53:26.830Z,25.10
2019-04-20T11:55:58.388Z,25.10
2019-04-20T11:58:30.318Z,25.10
2019-04-20T12:01:08.651Z,25.20
2019-04-20T12:03:47.830Z,25.20
2019-04-20T12:06:08.317Z,25.20
2019-04-20T12:08:56.891Z,25.20
2019-04-20T12:11:39.895Z,25.10
2019-04-20T12:13:58.659Z,25.20
2019-04-20T12:16:29.823Z,25.20
2019-04-20T12:19:00.166Z,25.50
2019-04-20T12:21:30.719Z,25.50
2019-04-20T12:24:00.595Z,25.50
2019-04-20T12:26:31.014Z,25.60
2019-04-20T12:29:01.406Z,25.70
2019-04-20T12:31:31.585Z,25.70
2019-04-20T12:34:02.295Z,25.70
2019-04-20T12:36:33.221Z,25.70
2019-04-20T12:39:05.251Z,25.70
2019-04-20T12:41:43.357Z,25.70
2019-04-20T12:44:07.931Z,25.70
2019-04-20T12:46:38.275Z,25.70
2019-04-20T12:49:09.428Z,25.70
2019-04-20T12:51:47.426Z,25.70
2019-04-20T12:54:10.989Z,25.80
2019-04-20T12:56:40.688Z,25.70
2019-04-20T12:59:11.597Z,25.70
2019-04-20T13:01:41.587Z,25.60
2019-04-20T13:04:12.152Z,25.60
2019-04-20T13:06:42.857Z,25.60
2019-04-20T13:09:12.991Z,25.50
2019-04-20T13:12:15.470Z,25.60
2019-04-20T13:14:58.211Z,25.60
2019-04-20T13:17:28.313Z,25.60
2019-04-20T13:19:59.410Z,25.60
2019-04-20T13:22:29.604Z,25.60
2019-04-20T13:25:01.113Z,25.60
2019-04-20T13:27:32.723Z,25.60
2019-04-20T13:30:03.213Z,25.20
2019-04-20T13:32:34.299Z,25.00
2019-04-20T13:35:04.537Z,24.90
2019-04-20T13:37:36.805Z,24.90
2019-04-20T13:40:07.086Z,24.80
2019-04-20T13:42:38.173Z,24.80
2019-04-20T13:45:08.834Z,24.80
2019-04-20T13:47:39.038Z,24.80
2019-04-20T13:50:12.400Z,24.70
2019-04-20T13:52:41.067Z,24.80
2019-04-20T13:55:12.771Z,24.70
2019-04-20T13:57:55.818Z,24.70
2019-04-20T14:00:58.988Z,24.80
2019-04-20T14:03:30.554Z,24.80
2019-04-20T14:06:00.693Z,24.60
2019-04-20T14:08:31.759Z,24.60
2019-04-20T14:11:01.508Z,24.60
2019-04-20T14:13:38.109Z,24.40
2019-04-20T14:16:03.116Z,24.30
2019-04-20T14:18:33.280Z,24.40
2019-04-20T14:21:03.223Z,24.50
2019-04-20T14:23:32.966Z,24.60
2019-04-20T14:26:03.174Z,24.50
2019-04-20T14:28:33.301Z,24.50
2019-04-20T14:31:03.773Z,24.40
2019-04-20T14:33:34.807Z,24.50
2019-04-20T14:36:05.208Z,24.50
2019-04-20T14:38:36.180Z,24.50
2019-04-20T14:41:06.404Z,24.50
2019-04-20T14:43:37.028Z,24.50
2019-04-20T14:46:10.503Z,24.40
2019-04-20T14:48:40.654Z,24.50
2019-04-20T14:51:11.808Z,24.50
2019-04-20T14:53:43.289Z,24.50
2019-04-20T14:56:13.593Z,24.50
2019-04-20T14:58:51.358Z,24.40
2019-04-20T15:01:42.813Z,24.30
2019-04-20T15:04:17.737Z,24.40
2019-04-20T15:06:44.488Z,24.40
2019-04-20T15:09:14.809Z,24.50
2019-04-20T15:11:46.561Z,24.40
2019-04-20T15:14:16.489Z,24.40
2019-04-20T15:16:46.780Z,24.50
2019-04-20T15:19:33.711Z,24.40
2019-04-20T15:22:05.477Z,24.40
2019-04-20T15:24:35.629Z,24.50
2019-04-20T15:27:06.697Z,24.50
2019-04-20T15:29:38.122Z,24.40
2019-04-20T15:32:08.191Z,24.30
2019-04-20T15:34:39.227Z,24.30
2019-04-20T15:37:09.967Z,24.40
2019-04-20T15:39:41.079Z,24.30
2019-04-20T15:42:11.559Z,24.20
2019-04-20T15:44:41.489Z,24.20
2019-04-20T15:47:13.227Z,24.30
2019-04-20T15:49:44.180Z,24.30
2019-04-20T15:52:22.108Z,24.20
2019-04-20T15:54:45.647Z,24.30
2019-04-20T15:57:21.277Z,24.40
2019-04-20T15:59:46.874Z,24.20
2019-04-20T16:02:23.078Z,24.20
2019-04-20T16:05:06.059Z,24.20
2019-04-20T16:07:41.896Z,24.30
2019-04-20T16:10:07.744Z,24.20
2019-04-20T16:12:38.642Z,24.20
2019-04-20T16:15:09.676Z,24.20
2019-04-20T16:17:45.382Z,24.20
2019-04-20T16:20:15.715Z,24.20
2019-04-20T16:22:42.807Z,24.10
2019-04-20T16:25:25.821Z,24.10
2019-04-20T16:27:55.949Z,24.10
2019-04-20T16:30:25.891Z,23.90
2019-04-20T16:32:56.592Z,23.70
2019-04-20T16:35:28.676Z,23.80
2019-04-20T16:38:04.429Z,23.80
2019-04-20T16:40:35.574Z,23.80
2019-04-20T16:43:15.757Z,23.80
2019-04-20T16:45:37.150Z,23.90
2019-04-20T16:48:08.391Z,23.90
2019-04-20T16:50:38.392Z,23.80
2019-04-20T16:53:10.895Z,23.80
2019-04-20T16:55:40.982Z,23.80
2019-04-20T16:58:10.844Z,23.80
2019-04-20T17:00:41.233Z,23.70
2019-04-20T17:03:11.236Z,23.80
2019-04-20T17:05:41.255Z,23.80
2019-04-20T17:08:11.237Z,23.80
2019-04-20T17:10:42.203Z,23.80
2019-04-20T17:13:11.878Z,23.80
2019-04-20T17:15:41.732Z,23.80
2019-04-20T17:18:11.787Z,23.80
2019-04-20T17:20:41.591Z,23.70
2019-04-20T17:23:11.274Z,23.60
2019-04-20T17:25:41.939Z,23.60
2019-04-20T17:28:46.942Z,23.60
2019-04-20T17:31:33.530Z,23.60
2019-04-20T17:34:31.448Z,23.50
2019-04-20T17:36:44.469Z,23.60
2019-04-20T17:39:25.913Z,23.50
2019-04-20T17:42:03.458Z,23.50
2019-04-20T17:44:31.440Z,23.50
2019-04-20T17:47:00.663Z,23.50
2019-04-20T17:49:38.105Z,23.50
2019-04-20T17:52:17.700Z,23.30
2019-04-20T17:54:33.682Z,23.20
2019-04-20T17:57:04.471Z,23.20
2019-04-20T17:59:35.842Z,23.20
2019-04-20T18:02:33.322Z,23.30
2019-04-20T18:05:26.939Z,23.40
2019-04-20T18:07:56.560Z,23.30
2019-04-20T18:10:26.173Z,23.20
2019-04-20T18:12:47.618Z,23.30
2019-04-20T18:15:31.421Z,23.20
2019-04-20T18:18:23.980Z,23.20
2019-04-20T18:20:54.716Z,23.10
2019-04-20T18:23:31.975Z,23.10
2019-04-20T18:26:17.138Z,23.00
2019-04-20T18:28:54.395Z,23.00
2019-04-20T18:31:09.102Z,22.90
2019-04-20T18:33:40.449Z,22.80
2019-04-20T18:36:13.367Z,22.60
2019-04-20T18:38:51.482Z,22.60
2019-04-20T18:41:24.338Z,22.30
2019-04-20T18:43:50.795Z,22.30
2019-04-20T18:46:33.062Z,22.50
2019-04-20T18:49:04.875Z,22.50
2019-04-20T18:51:21.668Z,22.50
2019-04-20T18:53:53.452Z,22.40
2019-04-20T18:56:28.389Z,22.40
2019-04-20T18:58:55.579Z,22.30
2019-04-20T19:01:31.962Z,22.20
2019-04-20T19:03:57.350Z,22.10
2019-04-20T19:06:27.751Z,22.10
2019-04-20T19:08:58.877Z,22.00
2019-04-20T19:11:28.974Z,22.10
2019-04-20T19:14:26.186Z,22.10
2019-04-20T19:17:04.537Z,21.90
2019-04-20T19:19:37.553Z,21.80
2019-04-20T19:22:01.765Z,21.70
2019-04-20T19:24:36.053Z,21.70
2019-04-20T19:27:08.129Z,21.60
2019-04-20T19:29:43.302Z,21.40
2019-04-20T19:32:24.964Z,21.40
2019-04-20T19:34:50.209Z,21.40
2019-04-20T19:37:15.603Z,21.20
2019-04-20T19:39:53.263Z,21.30
2019-04-20T19:42:29.786Z,21.30
2019-04-20T19:44:56.521Z,21.40
2019-04-20T19:47:37.094Z,21.20
2019-04-20T19:50:18.494Z,21.10
2019-04-20T19:52:43.341Z,21.10
2019-04-20T19:55:10.815Z,20.90
2019-04-20T19:57:37.333Z,20.90
2019-04-20T19:59:56.237Z,20.80
2019-04-20T20:02:25.933Z,20.70
2019-04-20T20:05:01.579Z,20.60
2019-04-20T20:07:33.953Z,20.60
2019-04-20T20:10:02.277Z,20.70
2019-04-20T20:12:31.435Z,20.70
2019-04-20T20:15:01.711Z,20.50
2019-04-20T20:17:48.122Z,20.30
2019-04-20T20:20:26.284Z,20.20
2019-04-20T20:22:41.121Z,20.20
2019-04-20T20:25:07.282Z,20.30
2019-04-20T20:27:47.577Z,20.00
2019-04-20T20:30:20.446Z,19.90
2019-04-20T20:32:55.115Z,19.90
2019-04-20T20:35:16.955Z,19.80
2019-04-20T20:37:50.096Z,19.90
2019-04-20T20:40:23.280Z,19.80
2019-04-20T20:43:01.457Z,19.20
2019-04-20T20:45:29.605Z,18.80
2019-04-20T20:48:09.133Z,18.60
2019-04-20T20:50:42.918Z,18.50
2019-04-20T20:53:06.422Z,18.50
2019-04-20T20:55:35.627Z,18.40
2019-04-20T20:58:06.524Z,18.30
2019-04-20T21:00:38.803Z,18.10
2019-04-20T21:03:05.645Z,18.10
2019-04-20T21:05:31.744Z,18.10
2019-04-20T21:08:01.647Z,18.20
2019-04-20T21:10:37.747Z,18.10
2019-04-20T21:13:05.510Z,18.10
2019-04-20T21:15:35.187Z,18.00
2019-04-20T21:18:29.347Z,17.90
2019-04-20T21:20:53.673Z,17.90
2019-04-20T21:23:22.394Z,17.80
2019-04-20T21:25:59.062Z,17.70
2019-04-20T21:28:28.862Z,17.70
2019-04-20T21:31:06.940Z,17.50
2019-04-20T21:33:34.268Z,17.40
2019-04-20T21:36:02.744Z,17.40
2019-04-20T21:38:36.987Z,17.40
2019-04-20T21:41:09.354Z,17.50
2019-04-20T21:43:39.343Z,17.20
2019-04-20T21:46:10.226Z,17.20
2019-04-20T21:48:51.429Z,17.20
2019-04-20T21:51:26.411Z,17.00
2019-04-20T21:53:42.384Z,16.90
2019-04-20T21:56:12.295Z,16.90
2019-04-20T21:58:49.455Z,16.80
2019-04-20T22:01:22.648Z,16.70
2019-04-20T22:03:48.009Z,16.60
2019-04-20T22:06:18.322Z,16.50
2019-04-20T22:08:54.515Z,16.50
2019-04-20T22:11:20.048Z,16.40
2019-04-20T22:13:51.691Z,16.30
2019-04-20T22:16:22.673Z,16.20
2019-04-20T22:19:09.117Z,16.20
2019-04-20T22:21:35.467Z,16.20
2019-04-20T22:24:09.400Z,16.10
2019-04-20T22:26:34.667Z,16.00
2019-04-20T22:28:58.459Z,15.90
2019-04-20T22:31:28.139Z,15.80
2019-04-20T22:34:02.240Z,15.70
2019-04-20T22:36:33.908Z,15.70
2019-04-20T22:39:23.579Z,15.60
2019-04-20T22:42:00.145Z,15.60
2019-04-20T22:44:28.317Z,15.60
2019-04-20T22:46:58.354Z,15.40
2019-04-20T22:49:47.287Z,15.40
2019-04-20T22:52:11.828Z,15.40
2019-04-20T22:54:46.659Z,15.40
2019-04-20T22:57:12.442Z,15.30
2019-04-20T22:59:44.727Z,15.30
2019-04-20T23:02:08.083Z,15.30
2019-04-20T23:04:38.961Z,15.30
2019-04-20T23:07:10.605Z,15.30
2019-04-20T23:09:49.090Z,15.10
2019-04-20T23:12:17.604Z,15.20
2019-04-20T23:14:44.745Z,15.00
2019-04-20T23:17:18.455Z,14.90
2019-04-20T23:19:51.897Z,14.80
2019-04-20T23:22:19.068Z,14.70
2019-04-20T23:24:49.260Z,14.70
2019-04-20T23:27:25.554Z,14.70
2019-04-20T23:29:51.168Z,14.70
2019-04-20T23:32:22.490Z,14.60
2019-04-20T23:34:57.704Z,14.50
2019-04-20T23:37:30.993Z,14.50
2019-04-20T23:39:56.494Z,14.50
2019-04-20T23:42:36.094Z,14.30
2019-04-20T23:45:37.219Z,14.20
2019-04-20T23:48:08.408Z,14.40
2019-04-20T23:50:54.118Z,14.40
2019-04-20T23:53:25.943Z,14.30
2019-04-20T23:55:41.557Z,14.20
2019-04-20T23:58:12.954Z,14.00
